createdAt,value
2022-09-23T00:01:54.321Z,99.90
2022-09-23T00:06:57.015Z,99.90
2022-09-23T00:12:00.919Z,99.90
2022-09-23T00:17:03.506Z,99.90
2022-09-23T00:22:06.479Z,99.90
2022-09-23T00:27:10.067Z,99.90
2022-09-23T00:32:13.068Z,99.90
2022-09-23T00:37:16.907Z,99.90
2022-09-23T00:42:21.903Z,99.90
2022-09-23T00:47:38.486Z,99.90
2022-09-23T00:52:41.523Z,99.90
2022-09-23T00:57:46.317Z,99.90
2022-09-23T01:02:48.986Z,99.90
2022-09-23T01:07:51.912Z,99.90
2022-09-23T01:13:24.645Z,99.90
2022-09-23T01:18:49.129Z,99.90
2022-09-23T01:24:28.911Z,99.90
2022-09-23T01:29:37.308Z,99.90
2022-09-23T01:34:57.867Z,99.90
2022-09-23T01:40:11.316Z,99.90
2022-09-23T01:45:20.438Z,99.90
2022-09-23T01:50:51.163Z,99.90
2022-09-23T01:56:00.488Z,99.90
2022-09-23T02:01:07.346Z,99.90
2022-09-23T02:06:36.539Z,99.90
2022-09-23T02:11:46.312Z,99.90
2022-09-23T02:16:57.266Z,99.90
2022-09-23T02:22:15.884Z,99.90
2022-09-23T02:27:37.008Z,99.90
2022-09-23T02:33:15.642Z,99.90
2022-09-23T02:38:42.050Z,99.90
2022-09-23T02:43:48.821Z,99.90
2022-09-23T02:48:56.966Z,99.90
2022-09-23T02:53:59.743Z,99.90
2022-09-23T02:59:03.421Z,99.90
2022-09-23T03:04:27.258Z,99.90
2022-09-23T03:09:40.108Z,99.90
2022-09-23T03:15:00.838Z,99.90
2022-09-23T03:20:10.248Z,99.90
2022-09-23T03:25:18.278Z,99.90
2022-09-23T03:30:21.929Z,99.90
2022-09-23T03:35:26.609Z,99.90
2022-09-23T03:40:43.762Z,99.90
2022-09-23T03:45:47.318Z,99.90
2022-09-23T03:50:49.937Z,99.90
2022-09-23T03:55:52.532Z,99.90
2022-09-23T04:00:55.197Z,99.90
2022-09-23T04:05:59.904Z,99.90
2022-09-23T04:11:04.483Z,99.90
2022-09-23T04:16:07.304Z,99.90
2022-09-23T04:21:09.970Z,99.90
2022-09-23T04:26:13.369Z,99.90
2022-09-23T04:31:15.994Z,99.90
2022-09-23T04:36:18.599Z,99.90
2022-09-23T04:41:21.343Z,99.90
2022-09-23T04:46:24.640Z,99.90
2022-09-23T04:51:28.081Z,99.90
2022-09-23T04:56:34.210Z,99.90
2022-09-23T05:01:38.567Z,99.90
2022-09-23T05:06:44.186Z,99.90
2022-09-23T05:11:47.359Z,99.90
2022-09-23T05:16:50.014Z,99.90
2022-09-23T05:21:52.657Z,99.90
2022-09-23T05:26:56.439Z,99.90
2022-09-23T05:31:59.177Z,99.90
2022-09-23T05:37:01.830Z,99.90
2022-09-23T05:42:04.955Z,99.90
2022-09-23T05:47:07.872Z,99.90
2022-09-23T05:52:10.545Z,99.90
2022-09-23T05:57:13.204Z,99.90
2022-09-23T06:02:16.038Z,99.90
2022-09-23T06:07:19.157Z,99.90
2022-09-23T06:12:22.735Z,99.90
2022-09-23T06:17:25.485Z,99.90
2022-09-23T06:22:28.040Z,99.90
2022-09-23T06:27:31.991Z,99.90
2022-09-23T06:32:34.738Z,99.90
2022-09-23T06:37:37.461Z,99.90
2022-09-23T06:42:43.364Z,99.90
2022-09-23T06:47:47.400Z,99.90
2022-09-23T06:52:56.417Z,99.90
2022-09-23T06:57:59.474Z,99.90
2022-09-23T07:03:02.595Z,99.90
2022-09-23T07:08:12.134Z,99.90
2022-09-23T07:13:16.383Z,99.90
2022-09-23T07:18:20.520Z,99.90
2022-09-23T07:23:23.182Z,99.90
2022-09-23T07:28:28.238Z,99.90
2022-09-23T07:33:32.985Z,99.90
2022-09-23T07:38:38.696Z,99.90
2022-09-23T07:43:45.143Z,99.90
2022-09-23T07:48:48.097Z,99.90
2022-09-23T07:53:52.162Z,99.90
2022-09-23T07:59:01.970Z,99.90
2022-09-23T08:04:12.242Z,99.90
2022-09-23T08:09:16.604Z,99.90
2022-09-23T08:14:19.891Z,99.90
2022-09-23T08:19:22.614Z,99.90
2022-09-23T08:24:26.793Z,99.90
2022-09-23T08:29:29.515Z,99.90
2022-09-23T08:34:32.214Z,99.90
2022-09-23T08:39:35.058Z,99.90
2022-09-23T08:44:48.517Z,99.90
2022-09-23T08:49:58.059Z,99.90
2022-09-23T08:55:04.738Z,99.90
2022-09-23T09:00:14.661Z,99.90
2022-09-23T09:05:25.837Z,99.90
2022-09-23T09:10:38.062Z,99.90
2022-09-23T09:16:13.759Z,99.90
2022-09-23T09:21:16.539Z,99.90
2022-09-23T09:26:28.960Z,99.90
2022-09-23T09:31:48.696Z,99.90
2022-09-23T09:37:33.857Z,99.90
2022-09-23T09:42:41.769Z,99.90
2022-09-23T09:47:51.889Z,99.90
2022-09-23T09:53:24.104Z,99.90
2022-09-23T09:58:32.821Z,99.90
2022-09-23T10:03:41.692Z,99.90
2022-09-23T10:08:50.339Z,99.90
2022-09-23T10:14:17.778Z,99.90
2022-09-23T10:19:28.886Z,99.90
2022-09-23T10:24:34.596Z,99.90
2022-09-23T10:29:49.517Z,99.90
2022-09-23T10:35:14.199Z,99.90
2022-09-23T10:40:56.240Z,99.90
2022-09-23T10:46:23.015Z,99.90
2022-09-23T10:51:40.195Z,99.90
2022-09-23T10:57:40.856Z,99.90
2022-09-23T11:03:00.771Z,99.90
2022-09-23T11:08:18.533Z,99.90
2022-09-23T11:13:24.769Z,99.90
2022-09-23T11:18:43.932Z,99.90
2022-09-23T11:24:08.501Z,99.90
2022-09-23T11:29:29.661Z,99.90
2022-09-23T11:35:11.506Z,99.90
2022-09-23T11:40:23.690Z,99.90
2022-09-23T11:45:32.735Z,99.90
2022-09-23T11:50:40.588Z,99.90
2022-09-23T11:55:57.750Z,99.90
2022-09-23T12:01:14.922Z,99.90
2022-09-23T12:06:33.229Z,92.30
2022-09-23T12:12:05.590Z,83.30
2022-09-23T12:17:31.350Z,87.30
2022-09-23T12:22:54.612Z,87.50
2022-09-23T12:28:04.232Z,81.90
2022-09-23T12:33:30.652Z,67.50
2022-09-23T12:38:50.194Z,60.40
2022-09-23T12:44:13.785Z,56.80
2022-09-23T12:49:26.915Z,58.40
2022-09-23T12:54:30.274Z,64.70
2022-09-23T12:59:57.663Z,72.80
2022-09-23T13:05:26.858Z,84.40
2022-09-23T13:10:33.126Z,86.10
2022-09-23T13:15:37.307Z,75.60
2022-09-23T13:20:40.908Z,71.50
2022-09-23T13:25:44.258Z,65.10
2022-09-23T13:30:52.330Z,66.00
2022-09-23T13:36:01.819Z,60.20
2022-09-23T13:41:24.072Z,55.70
2022-09-23T13:46:30.290Z,53.70
2022-09-23T13:51:35.319Z,53.70
2022-09-23T13:56:48.851Z,56.10
2022-09-23T14:02:02.060Z,54.60
2022-09-23T14:07:07.273Z,56.30
2022-09-23T14:12:11.297Z,55.60
2022-09-23T14:17:19.734Z,55.90
2022-09-23T14:22:28.225Z,56.00
2022-09-23T14:27:32.960Z,53.60
2022-09-23T14:32:35.944Z,53.00
2022-09-23T14:37:56.983Z,52.40
2022-09-23T14:43:07.023Z,52.60
2022-09-23T14:48:16.618Z,57.80
2022-09-23T14:53:19.339Z,58.20
2022-09-23T14:58:25.967Z,59.20
2022-09-23T15:03:29.456Z,59.00
2022-09-23T15:08:34.108Z,68.50
2022-09-23T15:13:40.862Z,64.00
2022-09-23T15:18:46.501Z,68.00
2022-09-23T15:23:51.859Z,68.40
2022-09-23T15:28:58.622Z,64.00
2022-09-23T15:34:01.358Z,69.20
2022-09-23T15:39:06.524Z,65.90
2022-09-23T15:44:14.161Z,63.70
2022-09-23T15:49:39.436Z,80.40
2022-09-23T15:54:44.006Z,71.80
2022-09-23T15:59:46.797Z,99.90
2022-09-23T16:04:51.349Z,93.10
2022-09-23T16:09:55.025Z,93.70
2022-09-23T16:14:57.805Z,98.80
2022-09-23T16:20:00.992Z,99.90
2022-09-23T16:25:05.485Z,99.90
2022-09-23T16:30:08.868Z,99.90
2022-09-23T16:35:11.698Z,99.90
2022-09-23T16:40:18.486Z,99.90
2022-09-23T16:45:23.371Z,99.90
2022-09-23T16:50:26.328Z,99.90
2022-09-23T16:55:29.381Z,99.90
2022-09-23T17:00:50.348Z,99.90
2022-09-23T17:05:55.095Z,99.90
2022-09-23T17:10:59.680Z,99.90
2022-09-23T17:16:02.831Z,99.90
2022-09-23T17:21:07.940Z,99.90
2022-09-23T17:26:12.599Z,99.90
2022-09-23T17:31:15.445Z,99.90
2022-09-23T17:36:18.570Z,99.90
2022-09-23T17:41:22.032Z,99.90
2022-09-23T17:46:24.972Z,99.90
2022-09-23T17:51:27.886Z,99.90
2022-09-23T17:56:31.058Z,99.90
2022-09-23T18:01:35.323Z,99.90
2022-09-23T18:06:38.505Z,99.90
2022-09-23T18:11:43.452Z,99.90
2022-09-23T18:16:49.157Z,99.90
2022-09-23T18:21:54.852Z,99.90
2022-09-23T18:27:00.084Z,99.90
2022-09-23T18:32:04.069Z,99.90
2022-09-23T18:37:15.420Z,99.90
2022-09-23T18:42:19.705Z,99.90
2022-09-23T18:47:41.601Z,99.90
2022-09-23T18:52:44.311Z,99.90
2022-09-23T18:57:48.391Z,99.90
2022-09-23T19:02:52.729Z,99.90
2022-09-23T19:07:55.747Z,99.90
2022-09-23T19:12:58.584Z,99.90
2022-09-23T19:18:01.231Z,99.90
2022-09-23T19:23:03.969Z,99.90
2022-09-23T19:28:08.579Z,99.90
2022-09-23T19:33:11.401Z,99.90
2022-09-23T19:38:14.901Z,99.90
2022-09-23T19:43:18.379Z,99.90
2022-09-23T19:48:21.099Z,99.90
2022-09-23T19:53:28.032Z,99.90
2022-09-23T19:58:32.141Z,99.90
2022-09-23T20:03:34.898Z,99.90
2022-09-23T20:08:38.688Z,99.90
2022-09-23T20:13:44.242Z,99.90
2022-09-23T20:18:52.118Z,99.90
2022-09-23T20:23:54.860Z,99.90
2022-09-23T20:29:01.561Z,99.90
2022-09-23T20:34:06.208Z,99.90
2022-09-23T20:39:10.439Z,99.90
2022-09-23T20:44:14.589Z,99.90
2022-09-23T20:49:17.907Z,99.90
2022-09-23T20:54:22.150Z,99.90
2022-09-23T20:59:27.499Z,99.90
2022-09-23T21:04:30.782Z,99.90
2022-09-23T21:09:33.436Z,99.90
2022-09-23T21:14:36.210Z,99.90
2022-09-23T21:19:38.823Z,99.90
2022-09-23T21:25:16.027Z,99.90
2022-09-23T21:30:04.825Z,99.90
2022-09-23T21:35:07.670Z,99.90
2022-09-23T21:40:29.204Z,99.90
2022-09-23T21:45:32.328Z,99.90
2022-09-23T21:50:37.610Z,99.90
2022-09-23T21:55:40.359Z,99.90
2022-09-23T22:00:44.188Z,99.90
2022-09-23T22:05:47.027Z,99.90
2022-09-23T22:10:49.633Z,99.90
2022-09-23T22:15:52.764Z,99.90
2022-09-23T22:20:59.316Z,99.90
2022-09-23T22:26:03.369Z,99.90
2022-09-23T22:31:24.905Z,99.90
2022-09-23T22:36:27.592Z,99.90
2022-09-23T22:41:30.211Z,99.90
2022-09-23T22:46:34.821Z,99.90
2022-09-23T22:51:43.713Z,99.90
2022-09-23T22:56:46.270Z,99.90
2022-09-23T23:01:52.031Z,99.90
2022-09-23T23:06:54.762Z,99.90
2022-09-23T23:11:57.360Z,99.90
2022-09-23T23:16:59.984Z,99.90
2022-09-23T23:22:02.790Z,99.90
2022-09-23T23:27:05.586Z,99.90
2022-09-23T23:32:09.936Z,99.90
2022-09-23T23:37:12.562Z,99.90
2022-09-23T23:42:15.116Z,99.90
2022-09-23T23:47:17.711Z,99.90
2022-09-23T23:52:20.522Z,99.90
2022-09-23T23:57:23.130Z,99.90
